Terminal Aerodrome Forecast
Issued by NWS

Home | Current Version | Previous Version | Text Only | Print | Product List | Glossary On
Versions: 1 2 3 4 5 6 7 8 9 10 11 12 13 14 15 16 17 18 19 20 21 22 23 24 25 26 27 28 29 30 31 32 33 34
000
FTUS45 KBOU 302352 AAA
TAFBJC
TAF AMD
KBJC 302352Z 3100/3124 21010KT P6SM VCSH SCT060 BKN090 OVC150
     FM310400 30006KT P6SM SCT050 BKN100 OVC150
     FM311100 10008KT P6SM VCSH SCT007 BKN015 OVC030
     FM311700 09011KT P6SM -SHRA BKN007 OVC140
     FM312200 11014KT 3SM -RA BR OVC007=

USA.gov is the U.S. government's official web portal to all federal, state and local government web resources and services.